sensor_id;sensor_type;location;lat;lon;timestamp;P1;durP1;ratioP1;P2;durP2;ratioP2
48897;SDS011;34713;50.038;20.000;2022-07-25T00:00:43;8.23;;;5.40;;
48897;SDS011;34713;50.038;20.000;2022-07-25T00:03:09;7.95;;;5.60;;
48897;SDS011;34713;50.038;20.000;2022-07-25T00:05:36;7.12;;;5.20;;
48897;SDS011;34713;50.038;20.000;2022-07-25T00:08:02;8.98;;;5.25;;
48897;SDS011;34713;50.038;20.000;2022-07-25T00:10:28;9.80;;;5.12;;
48897;SDS011;34713;50.038;20.000;2022-07-25T00:12:54;9.05;;;4.80;;
48897;SDS011;34713;50.038;20.000;2022-07-25T00:15:20;9.25;;;4.97;;
48897;SDS011;34713;50.038;20.000;2022-07-25T00:17:46;10.58;;;5.40;;
48897;SDS011;34713;50.038;20.000;2022-07-25T00:20:12;8.15;;;5.42;;
48897;SDS011;34713;50.038;20.000;2022-07-25T00:22:38;9.00;;;5.05;;
48897;SDS011;34713;50.038;20.000;2022-07-25T00:25:04;7.50;;;4.87;;
48897;SDS011;34713;50.038;20.000;2022-07-25T00:27:30;12.15;;;5.67;;
48897;SDS011;34713;50.038;20.000;2022-07-25T00:29:56;5.75;;;4.80;;
48897;SDS011;34713;50.038;20.000;2022-07-25T00:32:22;6.12;;;4.20;;
48897;SDS011;34713;50.038;20.000;2022-07-25T00:34:48;8.03;;;4.22;;
48897;SDS011;34713;50.038;20.000;2022-07-25T00:37:14;7.08;;;5.05;;
48897;SDS011;34713;50.038;20.000;2022-07-25T00:39:40;8.13;;;5.08;;
48897;SDS011;34713;50.038;20.000;2022-07-25T00:42:06;8.63;;;4.70;;
48897;SDS011;34713;50.038;20.000;2022-07-25T00:44:32;6.05;;;4.70;;
48897;SDS011;34713;50.038;20.000;2022-07-25T00:46:59;8.80;;;4.95;;
48897;SDS011;34713;50.038;20.000;2022-07-25T00:49:25;10.85;;;5.08;;
48897;SDS011;34713;50.038;20.000;2022-07-25T00:51:52;7.95;;;5.28;;
48897;SDS011;34713;50.038;20.000;2022-07-25T00:54:19;7.92;;;4.83;;
48897;SDS011;34713;50.038;20.000;2022-07-25T00:56:46;10.23;;;4.53;;
48897;SDS011;34713;50.038;20.000;2022-07-25T00:59:13;7.08;;;5.00;;
48897;SDS011;34713;50.038;20.000;2022-07-25T01:01:40;9.73;;;5.15;;
48897;SDS011;34713;50.038;20.000;2022-07-25T01:04:07;6.90;;;5.08;;
48897;SDS011;34713;50.038;20.000;2022-07-25T01:06:33;6.62;;;4.83;;
48897;SDS011;34713;50.038;20.000;2022-07-25T01:09:00;8.15;;;4.78;;
48897;SDS011;34713;50.038;20.000;2022-07-25T01:11:26;9.23;;;4.50;;
48897;SDS011;34713;50.038;20.000;2022-07-25T01:13:52;6.35;;;4.80;;
48897;SDS011;34713;50.038;20.000;2022-07-25T01:16:18;7.90;;;4.97;;
48897;SDS011;34713;50.038;20.000;2022-07-25T01:18:45;9.03;;;5.50;;
48897;SDS011;34713;50.038;20.000;2022-07-25T01:21:11;6.85;;;4.78;;
48897;SDS011;34713;50.038;20.000;2022-07-25T01:23:38;5.97;;;4.65;;
48897;SDS011;34713;50.038;20.000;2022-07-25T01:26:06;9.80;;;5.20;;
48897;SDS011;34713;50.038;20.000;2022-07-25T01:28:32;7.50;;;5.35;;
48897;SDS011;34713;50.038;20.000;2022-07-25T01:30:58;7.40;;;4.95;;
48897;SDS011;34713;50.038;20.000;2022-07-25T01:33:24;9.90;;;5.10;;
48897;SDS011;34713;50.038;20.000;2022-07-25T01:35:50;9.25;;;5.20;;
48897;SDS011;34713;50.038;20.000;2022-07-25T01:38:16;5.78;;;4.55;;
48897;SDS011;34713;50.038;20.000;2022-07-25T01:40:42;6.70;;;5.10;;
48897;SDS011;34713;50.038;20.000;2022-07-25T01:43:08;5.45;;;4.20;;
48897;SDS011;34713;50.038;20.000;2022-07-25T01:45:35;10.15;;;5.60;;
48897;SDS011;34713;50.038;20.000;2022-07-25T01:48:01;8.05;;;5.00;;
48897;SDS011;34713;50.038;20.000;2022-07-25T01:50:27;7.58;;;5.30;;
48897;SDS011;34713;50.038;20.000;2022-07-25T01:52:54;7.28;;;4.65;;
48897;SDS011;34713;50.038;20.000;2022-07-25T01:55:20;8.08;;;5.05;;
48897;SDS011;34713;50.038;20.000;2022-07-25T01:57:46;8.53;;;5.12;;
48897;SDS011;34713;50.038;20.000;2022-07-25T02:00:13;7.15;;;4.67;;
48897;SDS011;34713;50.038;20.000;2022-07-25T02:02:40;8.90;;;5.10;;
48897;SDS011;34713;50.038;20.000;2022-07-25T02:05:08;7.08;;;4.58;;
48897;SDS011;34713;50.038;20.000;2022-07-25T02:07:36;5.83;;;4.22;;
48897;SDS011;34713;50.038;20.000;2022-07-25T02:10:03;7.20;;;4.40;;
48897;SDS011;34713;50.038;20.000;2022-07-25T02:12:31;11.40;;;5.47;;
48897;SDS011;34713;50.038;20.000;2022-07-25T02:14:57;7.80;;;4.75;;
48897;SDS011;34713;50.038;20.000;2022-07-25T02:17:23;7.35;;;4.45;;
48897;SDS011;34713;50.038;20.000;2022-07-25T02:19:50;9.03;;;5.22;;
48897;SDS011;34713;50.038;20.000;2022-07-25T02:22:16;7.25;;;4.35;;
48897;SDS011;34713;50.038;20.000;2022-07-25T02:24:42;5.85;;;4.30;;
48897;SDS011;34713;50.038;20.000;2022-07-25T02:27:08;8.25;;;4.05;;
48897;SDS011;34713;50.038;20.000;2022-07-25T02:29:34;8.05;;;3.27;;
48897;SDS011;34713;50.038;20.000;2022-07-25T02:32:01;4.75;;;3.20;;
48897;SDS011;34713;50.038;20.000;2022-07-25T02:34:27;6.03;;;3.70;;
48897;SDS011;34713;50.038;20.000;2022-07-25T02:36:53;6.72;;;3.08;;
48897;SDS011;34713;50.038;20.000;2022-07-25T02:39:19;4.08;;;2.75;;
48897;SDS011;34713;50.038;20.000;2022-07-25T02:41:45;6.50;;;3.42;;
48897;SDS011;34713;50.038;20.000;2022-07-25T02:44:11;6.78;;;4.08;;
48897;SDS011;34713;50.038;20.000;2022-07-25T02:46:37;6.78;;;3.87;;
48897;SDS011;34713;50.038;20.000;2022-07-25T02:49:03;6.62;;;3.98;;
48897;SDS011;34713;50.038;20.000;2022-07-25T02:51:30;7.10;;;3.95;;
48897;SDS011;34713;50.038;20.000;2022-07-25T02:53:56;4.87;;;3.35;;
48897;SDS011;34713;50.038;20.000;2022-07-25T02:56:21;8.68;;;3.70;;
48897;SDS011;34713;50.038;20.000;2022-07-25T02:58:47;9.08;;;4.42;;
48897;SDS011;34713;50.038;20.000;2022-07-25T03:01:13;7.35;;;3.80;;
48897;SDS011;34713;50.038;20.000;2022-07-25T03:03:39;7.10;;;4.45;;
48897;SDS011;34713;50.038;20.000;2022-07-25T03:06:04;7.65;;;4.12;;
48897;SDS011;34713;50.038;20.000;2022-07-25T03:08:31;7.05;;;3.87;;
48897;SDS011;34713;50.038;20.000;2022-07-25T03:10:58;6.50;;;4.15;;
48897;SDS011;34713;50.038;20.000;2022-07-25T03:13:24;7.62;;;4.05;;
48897;SDS011;34713;50.038;20.000;2022-07-25T03:15:50;9.48;;;4.30;;
48897;SDS011;34713;50.038;20.000;2022-07-25T03:18:16;9.30;;;4.90;;
48897;SDS011;34713;50.038;20.000;2022-07-25T03:20:41;9.28;;;4.58;;
48897;SDS011;34713;50.038;20.000;2022-07-25T03:23:07;8.25;;;4.58;;
48897;SDS011;34713;50.038;20.000;2022-07-25T03:25:33;5.78;;;4.17;;
48897;SDS011;34713;50.038;20.000;2022-07-25T03:27:58;8.78;;;4.20;;
48897;SDS011;34713;50.038;20.000;2022-07-25T03:30:24;11.20;;;4.17;;
48897;SDS011;34713;50.038;20.000;2022-07-25T03:32:50;8.65;;;4.47;;
48897;SDS011;34713;50.038;20.000;2022-07-25T03:35:16;6.65;;;4.05;;
48897;SDS011;34713;50.038;20.000;2022-07-25T03:37:42;11.35;;;4.40;;
48897;SDS011;34713;50.038;20.000;2022-07-25T03:40:08;8.18;;;4.03;;
48897;SDS011;34713;50.038;20.000;2022-07-25T03:42:34;14.35;;;4.17;;
48897;SDS011;34713;50.038;20.000;2022-07-25T03:45:00;5.62;;;4.25;;
48897;SDS011;34713;50.038;20.000;2022-07-25T03:47:26;6.90;;;4.20;;
48897;SDS011;34713;50.038;20.000;2022-07-25T03:49:52;5.47;;;4.40;;
48897;SDS011;34713;50.038;20.000;2022-07-25T03:52:18;10.18;;;4.35;;
48897;SDS011;34713;50.038;20.000;2022-07-25T03:54:43;7.08;;;4.22;;
48897;SDS011;34713;50.038;20.000;2022-07-25T03:57:09;7.10;;;5.03;;
48897;SDS011;34713;50.038;20.000;2022-07-25T03:59:36;7.72;;;4.37;;
48897;SDS011;34713;50.038;20.000;2022-07-25T04:02:02;7.90;;;4.58;;
48897;SDS011;34713;50.038;20.000;2022-07-25T04:04:28;6.87;;;3.98;;
48897;SDS011;34713;50.038;20.000;2022-07-25T04:06:54;6.20;;;4.60;;
48897;SDS011;34713;50.038;20.000;2022-07-25T04:09:20;9.53;;;5.28;;
48897;SDS011;34713;50.038;20.000;2022-07-25T04:11:46;6.50;;;3.90;;
48897;SDS011;34713;50.038;20.000;2022-07-25T04:14:12;5.60;;;2.92;;
48897;SDS011;34713;50.038;20.000;2022-07-25T04:16:38;6.00;;;2.80;;
48897;SDS011;34713;50.038;20.000;2022-07-25T04:19:04;6.55;;;3.05;;
48897;SDS011;34713;50.038;20.000;2022-07-25T04:21:30;4.70;;;2.77;;
48897;SDS011;34713;50.038;20.000;2022-07-25T04:23:56;7.12;;;3.20;;
48897;SDS011;34713;50.038;20.000;2022-07-25T04:26:21;7.97;;;3.25;;
48897;SDS011;34713;50.038;20.000;2022-07-25T04:28:47;4.15;;;2.98;;
48897;SDS011;34713;50.038;20.000;2022-07-25T04:31:13;5.53;;;3.10;;
48897;SDS011;34713;50.038;20.000;2022-07-25T04:33:39;4.95;;;3.22;;
48897;SDS011;34713;50.038;20.000;2022-07-25T04:36:06;7.10;;;2.92;;
48897;SDS011;34713;50.038;20.000;2022-07-25T04:38:32;5.33;;;2.85;;
48897;SDS011;34713;50.038;20.000;2022-07-25T04:40:58;7.10;;;3.22;;
48897;SDS011;34713;50.038;20.000;2022-07-25T04:43:24;5.30;;;2.80;;
48897;SDS011;34713;50.038;20.000;2022-07-25T04:45:50;3.80;;;3.00;;
48897;SDS011;34713;50.038;20.000;2022-07-25T04:48:16;6.78;;;3.33;;
48897;SDS011;34713;50.038;20.000;2022-07-25T04:50:42;6.17;;;3.67;;
48897;SDS011;34713;50.038;20.000;2022-07-25T04:53:08;7.92;;;3.05;;
48897;SDS011;34713;50.038;20.000;2022-07-25T04:55:34;6.62;;;3.40;;
48897;SDS011;34713;50.038;20.000;2022-07-25T04:58:00;15.45;;;3.85;;
48897;SDS011;34713;50.038;20.000;2022-07-25T05:00:26;7.15;;;3.20;;
48897;SDS011;34713;50.038;20.000;2022-07-25T05:02:52;10.80;;;3.22;;
48897;SDS011;34713;50.038;20.000;2022-07-25T05:05:18;9.80;;;3.35;;
48897;SDS011;34713;50.038;20.000;2022-07-25T05:07:44;6.47;;;2.98;;
48897;SDS011;34713;50.038;20.000;2022-07-25T05:10:11;10.68;;;3.90;;
48897;SDS011;34713;50.038;20.000;2022-07-25T05:12:37;8.95;;;3.00;;
48897;SDS011;34713;50.038;20.000;2022-07-25T05:15:03;8.13;;;3.25;;
48897;SDS011;34713;50.038;20.000;2022-07-25T05:17:30;9.25;;;3.00;;
48897;SDS011;34713;50.038;20.000;2022-07-25T05:19:56;6.92;;;3.35;;
48897;SDS011;34713;50.038;20.000;2022-07-25T05:22:23;8.95;;;3.60;;
48897;SDS011;34713;50.038;20.000;2022-07-25T05:24:49;8.18;;;3.20;;
48897;SDS011;34713;50.038;20.000;2022-07-25T05:27:15;6.60;;;3.33;;
48897;SDS011;34713;50.038;20.000;2022-07-25T05:29:40;6.37;;;3.30;;
48897;SDS011;34713;50.038;20.000;2022-07-25T05:32:06;8.20;;;3.10;;
48897;SDS011;34713;50.038;20.000;2022-07-25T05:34:32;4.58;;;2.72;;
48897;SDS011;34713;50.038;20.000;2022-07-25T05:36:58;7.33;;;3.50;;
48897;SDS011;34713;50.038;20.000;2022-07-25T05:39:24;4.83;;;3.05;;
48897;SDS011;34713;50.038;20.000;2022-07-25T05:41:49;4.17;;;3.15;;
48897;SDS011;34713;50.038;20.000;2022-07-25T05:44:15;4.95;;;3.20;;
48897;SDS011;34713;50.038;20.000;2022-07-25T05:46:41;4.97;;;3.02;;
48897;SDS011;34713;50.038;20.000;2022-07-25T05:49:06;7.30;;;2.75;;
48897;SDS011;34713;50.038;20.000;2022-07-25T05:51:32;6.33;;;2.92;;
48897;SDS011;34713;50.038;20.000;2022-07-25T05:53:58;6.08;;;2.87;;
48897;SDS011;34713;50.038;20.000;2022-07-25T05:56:24;3.98;;;2.17;;
48897;SDS011;34713;50.038;20.000;2022-07-25T05:58:50;5.62;;;2.02;;
48897;SDS011;34713;50.038;20.000;2022-07-25T06:01:16;6.35;;;1.92;;
48897;SDS011;34713;50.038;20.000;2022-07-25T06:03:42;3.55;;;1.85;;
48897;SDS011;34713;50.038;20.000;2022-07-25T06:06:08;3.65;;;1.85;;
48897;SDS011;34713;50.038;20.000;2022-07-25T06:08:35;4.75;;;1.80;;
48897;SDS011;34713;50.038;20.000;2022-07-25T06:11:03;2.87;;;1.77;;
48897;SDS011;34713;50.038;20.000;2022-07-25T06:13:35;2.22;;;1.40;;
48897;SDS011;34713;50.038;20.000;2022-07-25T06:15:59;2.42;;;1.57;;
48897;SDS011;34713;50.038;20.000;2022-07-25T06:18:25;5.20;;;1.70;;
48897;SDS011;34713;50.038;20.000;2022-07-25T06:20:52;5.92;;;1.60;;
48897;SDS011;34713;50.038;20.000;2022-07-25T06:23:18;5.75;;;1.77;;
48897;SDS011;34713;50.038;20.000;2022-07-25T06:25:44;7.80;;;2.05;;
48897;SDS011;34713;50.038;20.000;2022-07-25T06:28:13;5.75;;;1.98;;
48897;SDS011;34713;50.038;20.000;2022-07-25T06:30:43;8.25;;;2.00;;
48897;SDS011;34713;50.038;20.000;2022-07-25T06:33:10;6.17;;;2.17;;
48897;SDS011;34713;50.038;20.000;2022-07-25T06:35:36;6.45;;;2.40;;
48897;SDS011;34713;50.038;20.000;2022-07-25T06:38:02;9.25;;;3.20;;
48897;SDS011;34713;50.038;20.000;2022-07-25T06:40:29;8.50;;;2.70;;
48897;SDS011;34713;50.038;20.000;2022-07-25T06:42:55;4.10;;;2.20;;
48897;SDS011;34713;50.038;20.000;2022-07-25T06:45:21;7.97;;;2.90;;
48897;SDS011;34713;50.038;20.000;2022-07-25T06:47:48;6.60;;;2.80;;
48897;SDS011;34713;50.038;20.000;2022-07-25T06:50:15;13.45;;;2.70;;
48897;SDS011;34713;50.038;20.000;2022-07-25T06:52:43;8.05;;;3.40;;
48897;SDS011;34713;50.038;20.000;2022-07-25T06:55:10;13.00;;;4.10;;
48897;SDS011;34713;50.038;20.000;2022-07-25T06:57:38;10.00;;;3.35;;
48897;SDS011;34713;50.038;20.000;2022-07-25T07:00:08;7.28;;;3.10;;
48897;SDS011;34713;50.038;20.000;2022-07-25T07:03:01;6.20;;;3.08;;
48897;SDS011;34713;50.038;20.000;2022-07-25T07:05:26;8.83;;;3.33;;
48897;SDS011;34713;50.038;20.000;2022-07-25T07:07:54;6.47;;;3.27;;
48897;SDS011;34713;50.038;20.000;2022-07-25T07:10:21;5.33;;;2.70;;
48897;SDS011;34713;50.038;20.000;2022-07-25T07:12:47;7.78;;;3.10;;
48897;SDS011;34713;50.038;20.000;2022-07-25T07:15:14;7.70;;;3.20;;
48897;SDS011;34713;50.038;20.000;2022-07-25T07:17:40;10.23;;;3.00;;
48897;SDS011;34713;50.038;20.000;2022-07-25T07:20:07;9.65;;;2.77;;
48897;SDS011;34713;50.038;20.000;2022-07-25T07:22:47;4.50;;;2.20;;
48897;SDS011;34713;50.038;20.000;2022-07-25T07:25:14;6.42;;;2.42;;
48897;SDS011;34713;50.038;20.000;2022-07-25T07:27:42;5.87;;;1.80;;
48897;SDS011;34713;50.038;20.000;2022-07-25T07:30:09;6.55;;;2.20;;
48897;SDS011;34713;50.038;20.000;2022-07-25T07:32:36;3.95;;;1.87;;
48897;SDS011;34713;50.038;20.000;2022-07-25T07:35:02;4.05;;;1.75;;
48897;SDS011;34713;50.038;20.000;2022-07-25T07:37:28;8.18;;;1.80;;
48897;SDS011;34713;50.038;20.000;2022-07-25T07:39:54;1.45;;;0.98;;
48897;SDS011;34713;50.038;20.000;2022-07-25T07:42:20;3.75;;;1.35;;
48897;SDS011;34713;50.038;20.000;2022-07-25T07:44:45;3.15;;;1.30;;
48897;SDS011;34713;50.038;20.000;2022-07-25T07:47:11;2.12;;;0.98;;
48897;SDS011;34713;50.038;20.000;2022-07-25T07:49:37;4.50;;;1.30;;
48897;SDS011;34713;50.038;20.000;2022-07-25T07:52:03;4.80;;;1.25;;
48897;SDS011;34713;50.038;20.000;2022-07-25T07:54:29;2.90;;;1.00;;
48897;SDS011;34713;50.038;20.000;2022-07-25T07:57:13;2.95;;;1.10;;
48897;SDS011;34713;50.038;20.000;2022-07-25T07:59:39;3.52;;;1.35;;
48897;SDS011;34713;50.038;20.000;2022-07-25T08:02:05;5.22;;;1.60;;
48897;SDS011;34713;50.038;20.000;2022-07-25T08:04:31;4.20;;;1.65;;
48897;SDS011;34713;50.038;20.000;2022-07-25T08:06:56;7.42;;;1.87;;
48897;SDS011;34713;50.038;20.000;2022-07-25T08:09:22;11.10;;;1.90;;
48897;SDS011;34713;50.038;20.000;2022-07-25T08:11:50;4.15;;;1.57;;
48897;SDS011;34713;50.038;20.000;2022-07-25T08:14:17;3.42;;;1.37;;
48897;SDS011;34713;50.038;20.000;2022-07-25T08:16:43;5.40;;;1.40;;
48897;SDS011;34713;50.038;20.000;2022-07-25T08:19:09;5.65;;;1.42;;
48897;SDS011;34713;50.038;20.000;2022-07-25T08:21:34;8.40;;;1.87;;
48897;SDS011;34713;50.038;20.000;2022-07-25T08:24:02;5.95;;;1.52;;
48897;SDS011;34713;50.038;20.000;2022-07-25T08:26:29;3.45;;;1.60;;
48897;SDS011;34713;50.038;20.000;2022-07-25T08:28:56;5.00;;;1.25;;
48897;SDS011;34713;50.038;20.000;2022-07-25T08:31:22;3.92;;;1.27;;
48897;SDS011;34713;50.038;20.000;2022-07-25T08:33:48;3.47;;;1.27;;
48897;SDS011;34713;50.038;20.000;2022-07-25T08:36:13;2.72;;;1.30;;
48897;SDS011;34713;50.038;20.000;2022-07-25T08:38:39;3.00;;;1.90;;
48897;SDS011;34713;50.038;20.000;2022-07-25T08:41:05;5.53;;;1.90;;
48897;SDS011;34713;50.038;20.000;2022-07-25T08:43:31;6.97;;;1.57;;
48897;SDS011;34713;50.038;20.000;2022-07-25T08:46:02;5.60;;;1.65;;
48897;SDS011;34713;50.038;20.000;2022-07-25T08:48:30;5.97;;;1.47;;
48897;SDS011;34713;50.038;20.000;2022-07-25T08:50:55;2.77;;;1.42;;
48897;SDS011;34713;50.038;20.000;2022-07-25T08:53:23;1.77;;;1.20;;
48897;SDS011;34713;50.038;20.000;2022-07-25T08:55:50;3.20;;;1.37;;
48897;SDS011;34713;50.038;20.000;2022-07-25T08:58:16;2.85;;;1.30;;
48897;SDS011;34713;50.038;20.000;2022-07-25T09:00:43;3.40;;;1.90;;
48897;SDS011;34713;50.038;20.000;2022-07-25T09:03:10;3.62;;;1.42;;
48897;SDS011;34713;50.038;20.000;2022-07-25T09:05:39;4.40;;;1.52;;
48897;SDS011;34713;50.038;20.000;2022-07-25T09:08:06;6.25;;;1.27;;
48897;SDS011;34713;50.038;20.000;2022-07-25T09:10:35;2.52;;;1.22;;
48897;SDS011;34713;50.038;20.000;2022-07-25T09:13:06;3.37;;;1.40;;
48897;SDS011;34713;50.038;20.000;2022-07-25T09:15:37;3.00;;;1.60;;
48897;SDS011;34713;50.038;20.000;2022-07-25T09:18:08;7.08;;;1.95;;
48897;SDS011;34713;50.038;20.000;2022-07-25T09:23:09;3.20;;;1.30;;
48897;SDS011;34713;50.038;20.000;2022-07-25T09:25:37;2.95;;;1.37;;
48897;SDS011;34713;50.038;20.000;2022-07-25T09:28:14;2.37;;;1.20;;
48897;SDS011;34713;50.038;20.000;2022-07-25T09:30:52;5.50;;;1.45;;
48897;SDS011;34713;50.038;20.000;2022-07-25T09:33:21;2.70;;;1.40;;
48897;SDS011;34713;50.038;20.000;2022-07-25T09:35:49;5.45;;;1.22;;
48897;SDS011;34713;50.038;20.000;2022-07-25T09:38:16;3.20;;;1.35;;
48897;SDS011;34713;50.038;20.000;2022-07-25T09:40:59;3.72;;;1.50;;
48897;SDS011;34713;50.038;20.000;2022-07-25T09:43:39;6.37;;;1.57;;
48897;SDS011;34713;50.038;20.000;2022-07-25T09:46:07;3.15;;;1.12;;
48897;SDS011;34713;50.038;20.000;2022-07-25T09:48:35;5.75;;;1.55;;
48897;SDS011;34713;50.038;20.000;2022-07-25T09:51:03;2.58;;;1.45;;
48897;SDS011;34713;50.038;20.000;2022-07-25T09:53:32;8.03;;;1.90;;
48897;SDS011;34713;50.038;20.000;2022-07-25T09:55:58;2.72;;;1.22;;
48897;SDS011;34713;50.038;20.000;2022-07-25T09:58:25;5.35;;;1.80;;
48897;SDS011;34713;50.038;20.000;2022-07-25T10:00:53;5.78;;;1.52;;
48897;SDS011;34713;50.038;20.000;2022-07-25T10:06:20;3.22;;;1.30;;
48897;SDS011;34713;50.038;20.000;2022-07-25T10:08:56;3.87;;;1.32;;
48897;SDS011;34713;50.038;20.000;2022-07-25T10:11:24;4.30;;;1.37;;
48897;SDS011;34713;50.038;20.000;2022-07-25T10:13:54;2.08;;;1.35;;
48897;SDS011;34713;50.038;20.000;2022-07-25T10:16:25;1.70;;;1.20;;
48897;SDS011;34713;50.038;20.000;2022-07-25T10:18:51;3.62;;;1.22;;
48897;SDS011;34713;50.038;20.000;2022-07-25T10:21:22;4.25;;;1.52;;
48897;SDS011;34713;50.038;20.000;2022-07-25T10:23:57;3.25;;;1.42;;
48897;SDS011;34713;50.038;20.000;2022-07-25T10:26:36;4.40;;;1.30;;
48897;SDS011;34713;50.038;20.000;2022-07-25T10:29:07;2.95;;;1.35;;
48897;SDS011;34713;50.038;20.000;2022-07-25T10:31:35;3.10;;;1.25;;
48897;SDS011;34713;50.038;20.000;2022-07-25T10:34:05;7.47;;;1.22;;
48897;SDS011;34713;50.038;20.000;2022-07-25T10:36:45;3.52;;;1.00;;
48897;SDS011;34713;50.038;20.000;2022-07-25T10:39:11;2.67;;;1.20;;
48897;SDS011;34713;50.038;20.000;2022-07-25T10:41:40;1.80;;;1.22;;
48897;SDS011;34713;50.038;20.000;2022-07-25T10:44:12;3.75;;;1.27;;
48897;SDS011;34713;50.038;20.000;2022-07-25T10:46:40;2.77;;;1.20;;
48897;SDS011;34713;50.038;20.000;2022-07-25T10:49:21;3.65;;;1.30;;
48897;SDS011;34713;50.038;20.000;2022-07-25T10:51:54;3.80;;;1.42;;
48897;SDS011;34713;50.038;20.000;2022-07-25T10:54:33;3.33;;;1.12;;
48897;SDS011;34713;50.038;20.000;2022-07-25T10:57:03;6.62;;;1.30;;
48897;SDS011;34713;50.038;20.000;2022-07-25T10:59:34;1.47;;;0.98;;
48897;SDS011;34713;50.038;20.000;2022-07-25T11:02:03;6.80;;;1.40;;
48897;SDS011;34713;50.038;20.000;2022-07-25T11:04:32;2.33;;;1.47;;
48897;SDS011;34713;50.038;20.000;2022-07-25T11:07:08;2.42;;;1.15;;
48897;SDS011;34713;50.038;20.000;2022-07-25T11:09:41;7.05;;;1.37;;
48897;SDS011;34713;50.038;20.000;2022-07-25T11:12:08;2.35;;;1.00;;
48897;SDS011;34713;50.038;20.000;2022-07-25T11:14:40;2.92;;;0.93;;
48897;SDS011;34713;50.038;20.000;2022-07-25T11:17:11;2.45;;;1.00;;
48897;SDS011;34713;50.038;20.000;2022-07-25T11:22:28;2.12;;;1.07;;
48897;SDS011;34713;50.038;20.000;2022-07-25T11:24:55;1.70;;;0.80;;
48897;SDS011;34713;50.038;20.000;2022-07-25T11:32:44;2.25;;;1.10;;
48897;SDS011;34713;50.038;20.000;2022-07-25T11:35:14;2.17;;;0.90;;
48897;SDS011;34713;50.038;20.000;2022-07-25T11:37:41;3.70;;;1.02;;
48897;SDS011;34713;50.038;20.000;2022-07-25T11:40:11;4.33;;;1.35;;
48897;SDS011;34713;50.038;20.000;2022-07-25T11:42:44;4.35;;;1.25;;
48897;SDS011;34713;50.038;20.000;2022-07-25T11:50:35;2.12;;;1.27;;
48897;SDS011;34713;50.038;20.000;2022-07-25T11:53:04;2.58;;;1.10;;
48897;SDS011;34713;50.038;20.000;2022-07-25T11:55:35;1.55;;;0.90;;
48897;SDS011;34713;50.038;20.000;2022-07-25T11:58:04;3.27;;;1.32;;
48897;SDS011;34713;50.038;20.000;2022-07-25T12:00:35;1.62;;;1.07;;
48897;SDS011;34713;50.038;20.000;2022-07-25T12:03:09;1.60;;;0.98;;
48897;SDS011;34713;50.038;20.000;2022-07-25T12:05:40;3.47;;;1.00;;
48897;SDS011;34713;50.038;20.000;2022-07-25T12:08:10;3.02;;;1.00;;
48897;SDS011;34713;50.038;20.000;2022-07-25T12:10:43;2.12;;;1.32;;
48897;SDS011;34713;50.038;20.000;2022-07-25T12:13:24;1.87;;;1.17;;
48897;SDS011;34713;50.038;20.000;2022-07-25T12:15:54;3.22;;;0.95;;
48897;SDS011;34713;50.038;20.000;2022-07-25T12:18:22;2.72;;;0.80;;
48897;SDS011;34713;50.038;20.000;2022-07-25T12:20:48;2.85;;;1.10;;
48897;SDS011;34713;50.038;20.000;2022-07-25T12:23:14;1.02;;;0.90;;
48897;SDS011;34713;50.038;20.000;2022-07-25T12:25:41;2.55;;;1.30;;
48897;SDS011;34713;50.038;20.000;2022-07-25T12:28:09;2.83;;;1.42;;
48897;SDS011;34713;50.038;20.000;2022-07-25T12:30:36;2.08;;;1.27;;
48897;SDS011;34713;50.038;20.000;2022-07-25T12:33:03;2.37;;;1.25;;
48897;SDS011;34713;50.038;20.000;2022-07-25T12:35:30;4.22;;;1.10;;
48897;SDS011;34713;50.038;20.000;2022-07-25T12:37:56;1.27;;;0.90;;
48897;SDS011;34713;50.038;20.000;2022-07-25T12:40:22;2.47;;;1.02;;
48897;SDS011;34713;50.038;20.000;2022-07-25T12:42:48;1.82;;;1.00;;
48897;SDS011;34713;50.038;20.000;2022-07-25T12:45:14;1.32;;;1.00;;
48897;SDS011;34713;50.038;20.000;2022-07-25T12:47:42;2.87;;;1.12;;
48897;SDS011;34713;50.038;20.000;2022-07-25T12:50:09;1.35;;;0.93;;
48897;SDS011;34713;50.038;20.000;2022-07-25T12:52:36;2.92;;;1.00;;
48897;SDS011;34713;50.038;20.000;2022-07-25T12:55:02;8.78;;;1.57;;
48897;SDS011;34713;50.038;20.000;2022-07-25T12:57:31;2.17;;;0.98;;
48897;SDS011;34713;50.038;20.000;2022-07-25T12:59:56;1.65;;;1.20;;
48897;SDS011;34713;50.038;20.000;2022-07-25T13:02:22;1.52;;;1.02;;
48897;SDS011;34713;50.038;20.000;2022-07-25T13:04:48;2.77;;;1.02;;
48897;SDS011;34713;50.038;20.000;2022-07-25T13:07:14;1.32;;;1.05;;
48897;SDS011;34713;50.038;20.000;2022-07-25T13:09:40;1.77;;;1.00;;
48897;SDS011;34713;50.038;20.000;2022-07-25T13:12:06;2.05;;;0.90;;
48897;SDS011;34713;50.038;20.000;2022-07-25T13:14:33;3.27;;;1.10;;
48897;SDS011;34713;50.038;20.000;2022-07-25T13:16:58;1.70;;;0.90;;
48897;SDS011;34713;50.038;20.000;2022-07-25T13:19:24;2.02;;;1.00;;
48897;SDS011;34713;50.038;20.000;2022-07-25T13:21:50;4.30;;;1.17;;
48897;SDS011;34713;50.038;20.000;2022-07-25T13:24:16;4.65;;;1.10;;
48897;SDS011;34713;50.038;20.000;2022-07-25T13:26:41;5.40;;;1.40;;
48897;SDS011;34713;50.038;20.000;2022-07-25T13:29:07;4.12;;;1.00;;
48897;SDS011;34713;50.038;20.000;2022-07-25T13:31:38;3.72;;;1.27;;
48897;SDS011;34713;50.038;20.000;2022-07-25T13:34:05;1.65;;;1.10;;
48897;SDS011;34713;50.038;20.000;2022-07-25T13:36:33;3.37;;;1.15;;
48897;SDS011;34713;50.038;20.000;2022-07-25T13:38:59;2.80;;;0.78;;
48897;SDS011;34713;50.038;20.000;2022-07-25T13:41:25;3.55;;;1.00;;
48897;SDS011;34713;50.038;20.000;2022-07-25T13:43:52;4.35;;;1.77;;
48897;SDS011;34713;50.038;20.000;2022-07-25T13:46:18;2.72;;;0.93;;
48897;SDS011;34713;50.038;20.000;2022-07-25T13:48:44;4.17;;;1.10;;
48897;SDS011;34713;50.038;20.000;2022-07-25T13:51:09;2.65;;;1.20;;
48897;SDS011;34713;50.038;20.000;2022-07-25T13:53:35;1.98;;;1.10;;
48897;SDS011;34713;50.038;20.000;2022-07-25T13:56:01;1.52;;;1.10;;
48897;SDS011;34713;50.038;20.000;2022-07-25T13:58:28;4.95;;;1.10;;
48897;SDS011;34713;50.038;20.000;2022-07-25T14:00:53;3.00;;;1.00;;
48897;SDS011;34713;50.038;20.000;2022-07-25T14:03:20;4.08;;;1.07;;
48897;SDS011;34713;50.038;20.000;2022-07-25T14:05:46;1.62;;;1.10;;
48897;SDS011;34713;50.038;20.000;2022-07-25T14:08:11;2.17;;;1.10;;
48897;SDS011;34713;50.038;20.000;2022-07-25T14:10:37;1.60;;;1.20;;
48897;SDS011;34713;50.038;20.000;2022-07-25T14:13:03;2.80;;;1.00;;
48897;SDS011;34713;50.038;20.000;2022-07-25T14:15:28;2.02;;;0.90;;
48897;SDS011;34713;50.038;20.000;2022-07-25T14:17:54;1.30;;;0.90;;
48897;SDS011;34713;50.038;20.000;2022-07-25T14:20:21;2.35;;;0.95;;
48897;SDS011;34713;50.038;20.000;2022-07-25T14:22:46;4.10;;;1.32;;
48897;SDS011;34713;50.038;20.000;2022-07-25T14:25:12;2.20;;;1.02;;
48897;SDS011;34713;50.038;20.000;2022-07-25T14:27:38;2.17;;;0.95;;
48897;SDS011;34713;50.038;20.000;2022-07-25T14:30:05;1.37;;;1.00;;
48897;SDS011;34713;50.038;20.000;2022-07-25T14:32:33;4.08;;;1.20;;
48897;SDS011;34713;50.038;20.000;2022-07-25T14:35:00;2.27;;;0.95;;
48897;SDS011;34713;50.038;20.000;2022-07-25T14:37:27;4.62;;;1.20;;
48897;SDS011;34713;50.038;20.000;2022-07-25T14:39:56;5.17;;;1.12;;
48897;SDS011;34713;50.038;20.000;2022-07-25T14:42:22;2.05;;;1.00;;
48897;SDS011;34713;50.038;20.000;2022-07-25T14:44:48;1.87;;;0.90;;
48897;SDS011;34713;50.038;20.000;2022-07-25T14:47:14;2.65;;;0.90;;
48897;SDS011;34713;50.038;20.000;2022-07-25T14:49:40;2.05;;;1.07;;
48897;SDS011;34713;50.038;20.000;2022-07-25T14:52:08;3.55;;;1.10;;